sensor_id;sensor_type;location;lat;lon;timestamp;P1;durP1;ratioP1;P2;durP2;ratioP2
72920;SDS011;61064;51.654;5.476;2023-08-12T00:02:11;17.25;;;9.18;;
72920;SDS011;61064;51.654;5.476;2023-08-12T00:04:36;18.30;;;9.65;;
72920;SDS011;61064;51.654;5.476;2023-08-12T00:07:02;20.70;;;9.53;;
72920;SDS011;61064;51.654;5.476;2023-08-12T00:09:28;24.17;;;10.00;;
72920;SDS011;61064;51.654;5.476;2023-08-12T00:11:53;20.75;;;10.07;;
72920;SDS011;61064;51.654;5.476;2023-08-12T00:14:18;18.87;;;10.10;;
72920;SDS011;61064;51.654;5.476;2023-08-12T00:16:44;21.10;;;9.80;;
72920;SDS011;61064;51.654;5.476;2023-08-12T00:19:09;20.83;;;9.90;;
72920;SDS011;61064;51.654;5.476;2023-08-12T00:21:35;18.67;;;10.10;;
72920;SDS011;61064;51.654;5.476;2023-08-12T00:24:00;19.27;;;9.80;;
72920;SDS011;61064;51.654;5.476;2023-08-12T00:26:26;21.20;;;11.40;;
72920;SDS011;61064;51.654;5.476;2023-08-12T00:28:54;20.17;;;10.43;;
72920;SDS011;61064;51.654;5.476;2023-08-12T00:31:20;23.23;;;11.18;;
72920;SDS011;61064;51.654;5.476;2023-08-12T00:33:45;23.40;;;10.93;;
72920;SDS011;61064;51.654;5.476;2023-08-12T00:36:11;21.67;;;11.10;;
72920;SDS011;61064;51.654;5.476;2023-08-12T00:38:36;24.83;;;10.63;;
72920;SDS011;61064;51.654;5.476;2023-08-12T00:41:01;19.73;;;10.53;;
72920;SDS011;61064;51.654;5.476;2023-08-12T00:43:28;21.08;;;10.55;;
72920;SDS011;61064;51.654;5.476;2023-08-12T00:45:53;22.13;;;11.70;;
72920;SDS011;61064;51.654;5.476;2023-08-12T00:48:28;19.42;;;10.85;;
72920;SDS011;61064;51.654;5.476;2023-08-12T00:50:54;21.38;;;10.73;;
72920;SDS011;61064;51.654;5.476;2023-08-12T00:53:19;22.70;;;10.03;;
72920;SDS011;61064;51.654;5.476;2023-08-12T00:55:53;18.77;;;10.40;;
72920;SDS011;61064;51.654;5.476;2023-08-12T00:58:19;20.80;;;9.80;;
72920;SDS011;61064;51.654;5.476;2023-08-12T01:00:45;17.70;;;9.90;;
72920;SDS011;61064;51.654;5.476;2023-08-12T01:03:11;20.60;;;10.20;;
72920;SDS011;61064;51.654;5.476;2023-08-12T01:05:38;21.40;;;10.25;;
72920;SDS011;61064;51.654;5.476;2023-08-12T01:08:07;19.13;;;9.80;;
72920;SDS011;61064;51.654;5.476;2023-08-12T01:10:39;18.65;;;9.68;;
72920;SDS011;61064;51.654;5.476;2023-08-12T01:14:08;17.75;;;9.82;;
72920;SDS011;61064;51.654;5.476;2023-08-12T01:16:19;22.27;;;10.20;;
72920;SDS011;61064;51.654;5.476;2023-08-12T01:18:47;22.80;;;10.82;;
72920;SDS011;61064;51.654;5.476;2023-08-12T01:21:16;21.47;;;11.00;;
72920;SDS011;61064;51.654;5.476;2023-08-12T01:23:42;23.08;;;11.80;;
72920;SDS011;61064;51.654;5.476;2023-08-12T01:26:09;21.35;;;11.23;;
72920;SDS011;61064;51.654;5.476;2023-08-12T01:28:37;19.35;;;10.75;;
72920;SDS011;61064;51.654;5.476;2023-08-12T01:31:15;24.63;;;11.02;;
72920;SDS011;61064;51.654;5.476;2023-08-12T01:33:46;20.77;;;11.03;;
72920;SDS011;61064;51.654;5.476;2023-08-12T01:36:26;21.60;;;10.65;;
72920;SDS011;61064;51.654;5.476;2023-08-12T01:38:56;19.55;;;11.13;;
72920;SDS011;61064;51.654;5.476;2023-08-12T01:41:30;21.20;;;10.73;;
72920;SDS011;61064;51.654;5.476;2023-08-12T01:43:56;19.60;;;11.27;;
72920;SDS011;61064;51.654;5.476;2023-08-12T01:46:25;22.40;;;11.20;;
72920;SDS011;61064;51.654;5.476;2023-08-12T01:48:53;24.15;;;11.88;;
72920;SDS011;61064;51.654;5.476;2023-08-12T01:51:22;24.27;;;12.18;;
72920;SDS011;61064;51.654;5.476;2023-08-12T01:53:55;23.07;;;11.60;;
72920;SDS011;61064;51.654;5.476;2023-08-12T01:56:23;26.08;;;13.40;;
72920;SDS011;61064;51.654;5.476;2023-08-12T01:58:49;24.93;;;12.83;;
72920;SDS011;61064;51.654;5.476;2023-08-12T02:01:22;24.60;;;12.85;;
72920;SDS011;61064;51.654;5.476;2023-08-12T02:03:57;23.57;;;12.77;;
72920;SDS011;61064;51.654;5.476;2023-08-12T02:06:25;22.20;;;12.48;;
72920;SDS011;61064;51.654;5.476;2023-08-12T02:08:56;22.45;;;12.48;;
72920;SDS011;61064;51.654;5.476;2023-08-12T02:11:21;24.58;;;12.88;;
72920;SDS011;61064;51.654;5.476;2023-08-12T02:13:50;23.23;;;12.57;;
72920;SDS011;61064;51.654;5.476;2023-08-12T02:16:16;22.07;;;11.80;;
72920;SDS011;61064;51.654;5.476;2023-08-12T02:18:42;21.95;;;12.65;;
72920;SDS011;61064;51.654;5.476;2023-08-12T02:21:10;21.37;;;12.37;;
72920;SDS011;61064;51.654;5.476;2023-08-12T02:23:35;23.20;;;12.10;;
72920;SDS011;61064;51.654;5.476;2023-08-12T02:26:01;19.87;;;12.17;;
72920;SDS011;61064;51.654;5.476;2023-08-12T02:28:28;19.77;;;12.20;;
72920;SDS011;61064;51.654;5.476;2023-08-12T02:30:53;22.50;;;12.17;;
72920;SDS011;61064;51.654;5.476;2023-08-12T02:33:29;23.20;;;11.20;;
72920;SDS011;61064;51.654;5.476;2023-08-12T02:35:58;18.48;;;10.93;;
72920;SDS011;61064;51.654;5.476;2023-08-12T02:38:24;23.73;;;11.13;;
72920;SDS011;61064;51.654;5.476;2023-08-12T02:40:55;17.37;;;10.17;;
72920;SDS011;61064;51.654;5.476;2023-08-12T02:43:20;20.55;;;10.23;;
72920;SDS011;61064;51.654;5.476;2023-08-12T02:45:54;20.37;;;10.40;;
72920;SDS011;61064;51.654;5.476;2023-08-12T02:48:19;19.50;;;10.43;;
72920;SDS011;61064;51.654;5.476;2023-08-12T02:50:48;20.10;;;9.85;;
72920;SDS011;61064;51.654;5.476;2023-08-12T02:53:14;19.93;;;9.63;;
72920;SDS011;61064;51.654;5.476;2023-08-12T02:55:40;19.63;;;9.60;;
72920;SDS011;61064;51.654;5.476;2023-08-12T02:58:06;18.70;;;9.60;;
72920;SDS011;61064;51.654;5.476;2023-08-12T03:00:31;18.50;;;9.32;;
72920;SDS011;61064;51.654;5.476;2023-08-12T03:02:57;19.47;;;8.97;;
72920;SDS011;61064;51.654;5.476;2023-08-12T03:05:23;17.20;;;8.63;;
72920;SDS011;61064;51.654;5.476;2023-08-12T03:07:48;20.27;;;9.20;;
72920;SDS011;61064;51.654;5.476;2023-08-12T03:10:17;18.35;;;9.15;;
72920;SDS011;61064;51.654;5.476;2023-08-12T03:12:43;16.85;;;8.57;;
72920;SDS011;61064;51.654;5.476;2023-08-12T03:15:11;19.37;;;9.27;;
72920;SDS011;61064;51.654;5.476;2023-08-12T03:17:39;16.35;;;8.95;;
72920;SDS011;61064;51.654;5.476;2023-08-12T03:20:05;16.90;;;9.15;;
72920;SDS011;61064;51.654;5.476;2023-08-12T03:22:33;19.10;;;8.00;;
72920;SDS011;61064;51.654;5.476;2023-08-12T03:25:00;17.50;;;8.40;;
72920;SDS011;61064;51.654;5.476;2023-08-12T03:27:26;16.90;;;8.43;;
72920;SDS011;61064;51.654;5.476;2023-08-12T03:29:51;14.48;;;8.27;;
72920;SDS011;61064;51.654;5.476;2023-08-12T03:32:24;20.60;;;8.38;;
72920;SDS011;61064;51.654;5.476;2023-08-12T03:34:51;19.75;;;8.18;;
72920;SDS011;61064;51.654;5.476;2023-08-12T03:37:16;18.70;;;8.60;;
72920;SDS011;61064;51.654;5.476;2023-08-12T03:39:45;16.38;;;8.32;;
72920;SDS011;61064;51.654;5.476;2023-08-12T03:42:10;16.17;;;7.57;;
72920;SDS011;61064;51.654;5.476;2023-08-12T03:44:36;19.33;;;7.45;;
72920;SDS011;61064;51.654;5.476;2023-08-12T03:47:01;14.63;;;7.90;;
72920;SDS011;61064;51.654;5.476;2023-08-12T03:49:27;16.70;;;7.70;;
72920;SDS011;61064;51.654;5.476;2023-08-12T03:51:53;17.30;;;7.55;;
72920;SDS011;61064;51.654;5.476;2023-08-12T03:54:18;17.37;;;7.60;;
72920;SDS011;61064;51.654;5.476;2023-08-12T03:56:46;15.98;;;7.20;;
72920;SDS011;61064;51.654;5.476;2023-08-12T03:59:12;15.27;;;7.37;;
72920;SDS011;61064;51.654;5.476;2023-08-12T04:01:43;13.60;;;7.50;;
72920;SDS011;61064;51.654;5.476;2023-08-12T04:04:08;15.07;;;7.20;;
72920;SDS011;61064;51.654;5.476;2023-08-12T04:06:37;14.95;;;7.40;;
72920;SDS011;61064;51.654;5.476;2023-08-12T04:09:18;15.82;;;7.18;;
72920;SDS011;61064;51.654;5.476;2023-08-12T04:11:44;14.65;;;6.82;;
72920;SDS011;61064;51.654;5.476;2023-08-12T04:14:11;14.70;;;6.97;;
72920;SDS011;61064;51.654;5.476;2023-08-12T04:16:37;15.20;;;6.53;;
72920;SDS011;61064;51.654;5.476;2023-08-12T04:19:03;16.75;;;6.72;;
72920;SDS011;61064;51.654;5.476;2023-08-12T04:21:32;12.97;;;6.17;;
72920;SDS011;61064;51.654;5.476;2023-08-12T04:23:57;13.17;;;6.30;;
72920;SDS011;61064;51.654;5.476;2023-08-12T04:26:23;12.63;;;6.33;;
72920;SDS011;61064;51.654;5.476;2023-08-12T04:28:48;15.90;;;6.50;;
72920;SDS011;61064;51.654;5.476;2023-08-12T04:31:13;13.03;;;5.90;;
72920;SDS011;61064;51.654;5.476;2023-08-12T04:33:41;14.20;;;6.60;;
72920;SDS011;61064;51.654;5.476;2023-08-12T04:36:07;13.75;;;6.32;;
72920;SDS011;61064;51.654;5.476;2023-08-12T04:38:32;12.80;;;5.17;;
72920;SDS011;61064;51.654;5.476;2023-08-12T04:41:01;11.52;;;4.93;;
72920;SDS011;61064;51.654;5.476;2023-08-12T04:43:27;12.67;;;5.40;;
72920;SDS011;61064;51.654;5.476;2023-08-12T04:45:53;12.88;;;5.20;;
72920;SDS011;61064;51.654;5.476;2023-08-12T04:48:18;12.67;;;5.60;;
72920;SDS011;61064;51.654;5.476;2023-08-12T04:50:43;15.77;;;6.00;;
72920;SDS011;61064;51.654;5.476;2023-08-12T04:53:09;14.20;;;6.15;;
72920;SDS011;61064;51.654;5.476;2023-08-12T04:55:36;14.93;;;6.43;;
72920;SDS011;61064;51.654;5.476;2023-08-12T04:58:02;12.80;;;5.60;;
72920;SDS011;61064;51.654;5.476;2023-08-12T05:00:27;12.43;;;4.88;;
72920;SDS011;61064;51.654;5.476;2023-08-12T05:02:53;14.13;;;4.97;;
72920;SDS011;61064;51.654;5.476;2023-08-12T05:05:19;15.10;;;5.50;;
72920;SDS011;61064;51.654;5.476;2023-08-12T05:07:45;13.77;;;5.28;;
72920;SDS011;61064;51.654;5.476;2023-08-12T05:10:14;16.15;;;6.13;;
72920;SDS011;61064;51.654;5.476;2023-08-12T05:12:45;14.48;;;6.05;;
72920;SDS011;61064;51.654;5.476;2023-08-12T05:15:12;12.65;;;5.70;;
72920;SDS011;61064;51.654;5.476;2023-08-12T05:17:40;12.93;;;5.60;;
72920;SDS011;61064;51.654;5.476;2023-08-12T05:20:07;15.15;;;5.95;;
72920;SDS011;61064;51.654;5.476;2023-08-12T05:22:33;12.38;;;6.28;;
72920;SDS011;61064;51.654;5.476;2023-08-12T05:24:59;15.57;;;6.27;;
72920;SDS011;61064;51.654;5.476;2023-08-12T05:27:24;13.40;;;5.57;;
72920;SDS011;61064;51.654;5.476;2023-08-12T05:29:52;12.90;;;5.90;;
72920;SDS011;61064;51.654;5.476;2023-08-12T05:32:18;13.70;;;5.60;;
72920;SDS011;61064;51.654;5.476;2023-08-12T05:34:49;15.85;;;5.90;;
72920;SDS011;61064;51.654;5.476;2023-08-12T05:37:15;13.97;;;5.37;;
72920;SDS011;61064;51.654;5.476;2023-08-12T05:39:43;13.32;;;5.50;;
72920;SDS011;61064;51.654;5.476;2023-08-12T05:42:09;13.30;;;5.27;;
72920;SDS011;61064;51.654;5.476;2023-08-12T05:44:40;11.73;;;5.20;;
72920;SDS011;61064;51.654;5.476;2023-08-12T05:47:05;14.32;;;5.60;;
72920;SDS011;61064;51.654;5.476;2023-08-12T05:49:37;12.80;;;5.72;;
72920;SDS011;61064;51.654;5.476;2023-08-12T05:52:22;14.02;;;5.28;;
72920;SDS011;61064;51.654;5.476;2023-08-12T05:54:51;13.73;;;5.53;;
72920;SDS011;61064;51.654;5.476;2023-08-12T05:57:16;10.77;;;5.10;;
72920;SDS011;61064;51.654;5.476;2023-08-12T05:59:42;13.17;;;5.60;;
72920;SDS011;61064;51.654;5.476;2023-08-12T06:02:07;13.60;;;5.70;;
72920;SDS011;61064;51.654;5.476;2023-08-12T06:04:34;15.77;;;5.63;;
72920;SDS011;61064;51.654;5.476;2023-08-12T06:07:00;11.68;;;5.72;;
72920;SDS011;61064;51.654;5.476;2023-08-12T06:09:25;11.37;;;5.57;;
72920;SDS011;61064;51.654;5.476;2023-08-12T06:11:51;10.43;;;5.53;;
72920;SDS011;61064;51.654;5.476;2023-08-12T06:14:18;10.48;;;5.50;;
72920;SDS011;61064;51.654;5.476;2023-08-12T06:16:44;11.97;;;5.57;;
72920;SDS011;61064;51.654;5.476;2023-08-12T06:19:12;10.33;;;5.30;;
72920;SDS011;61064;51.654;5.476;2023-08-12T06:21:38;10.07;;;4.90;;
72920;SDS011;61064;51.654;5.476;2023-08-12T06:24:03;11.40;;;5.00;;
72920;SDS011;61064;51.654;5.476;2023-08-12T06:26:29;10.57;;;5.20;;
72920;SDS011;61064;51.654;5.476;2023-08-12T06:28:57;12.75;;;5.38;;
72920;SDS011;61064;51.654;5.476;2023-08-12T06:31:25;13.60;;;5.25;;
72920;SDS011;61064;51.654;5.476;2023-08-12T06:33:51;9.60;;;4.73;;
72920;SDS011;61064;51.654;5.476;2023-08-12T06:36:16;9.40;;;4.80;;
72920;SDS011;61064;51.654;5.476;2023-08-12T06:38:41;9.75;;;4.53;;
72920;SDS011;61064;51.654;5.476;2023-08-12T06:41:07;8.87;;;4.57;;
72920;SDS011;61064;51.654;5.476;2023-08-12T06:43:32;10.43;;;4.70;;
72920;SDS011;61064;51.654;5.476;2023-08-12T06:45:58;9.23;;;4.10;;
72920;SDS011;61064;51.654;5.476;2023-08-12T06:48:23;9.23;;;4.30;;
72920;SDS011;61064;51.654;5.476;2023-08-12T06:50:53;8.47;;;4.10;;
72920;SDS011;61064;51.654;5.476;2023-08-12T06:53:20;9.20;;;4.13;;
72920;SDS011;61064;51.654;5.476;2023-08-12T06:55:45;8.53;;;3.63;;
72920;SDS011;61064;51.654;5.476;2023-08-12T06:58:11;9.80;;;3.90;;
72920;SDS011;61064;51.654;5.476;2023-08-12T07:00:38;7.82;;;3.55;;
72920;SDS011;61064;51.654;5.476;2023-08-12T07:03:03;8.00;;;3.83;;
72920;SDS011;61064;51.654;5.476;2023-08-12T07:05:29;8.43;;;3.70;;
72920;SDS011;61064;51.654;5.476;2023-08-12T07:07:57;9.25;;;3.80;;
72920;SDS011;61064;51.654;5.476;2023-08-12T07:10:23;7.70;;;3.83;;
72920;SDS011;61064;51.654;5.476;2023-08-12T07:12:48;7.63;;;3.83;;
72920;SDS011;61064;51.654;5.476;2023-08-12T07:15:14;6.78;;;3.28;;
72920;SDS011;61064;51.654;5.476;2023-08-12T07:17:42;8.97;;;3.63;;
72920;SDS011;61064;51.654;5.476;2023-08-12T07:20:08;7.75;;;3.28;;
72920;SDS011;61064;51.654;5.476;2023-08-12T07:22:33;6.70;;;3.20;;
72920;SDS011;61064;51.654;5.476;2023-08-12T07:24:59;7.37;;;3.50;;
72920;SDS011;61064;51.654;5.476;2023-08-12T07:27:27;8.30;;;3.33;;
72920;SDS011;61064;51.654;5.476;2023-08-12T07:29:52;6.57;;;3.33;;
72920;SDS011;61064;51.654;5.476;2023-08-12T07:32:18;8.00;;;3.77;;
72920;SDS011;61064;51.654;5.476;2023-08-12T07:34:44;7.45;;;3.50;;
72920;SDS011;61064;51.654;5.476;2023-08-12T07:37:10;8.33;;;3.70;;
72920;SDS011;61064;51.654;5.476;2023-08-12T07:39:35;8.18;;;3.85;;
72920;SDS011;61064;51.654;5.476;2023-08-12T07:42:01;9.30;;;3.73;;
72920;SDS011;61064;51.654;5.476;2023-08-12T07:44:26;8.40;;;4.05;;
72920;SDS011;61064;51.654;5.476;2023-08-12T07:46:57;7.00;;;3.80;;
72920;SDS011;61064;51.654;5.476;2023-08-12T07:49:23;7.22;;;3.50;;
72920;SDS011;61064;51.654;5.476;2023-08-12T07:51:51;7.40;;;4.03;;
72920;SDS011;61064;51.654;5.476;2023-08-12T07:54:16;7.07;;;3.70;;
72920;SDS011;61064;51.654;5.476;2023-08-12T07:56:42;6.37;;;3.20;;
72920;SDS011;61064;51.654;5.476;2023-08-12T07:59:07;7.93;;;3.50;;
72920;SDS011;61064;51.654;5.476;2023-08-12T08:01:33;6.10;;;3.10;;
72920;SDS011;61064;51.654;5.476;2023-08-12T08:03:58;7.40;;;3.10;;
72920;SDS011;61064;51.654;5.476;2023-08-12T08:06:24;6.50;;;2.63;;
72920;SDS011;61064;51.654;5.476;2023-08-12T08:08:49;5.80;;;2.50;;
72920;SDS011;61064;51.654;5.476;2023-08-12T08:11:18;5.90;;;2.70;;
72920;SDS011;61064;51.654;5.476;2023-08-12T08:13:43;5.90;;;2.83;;
72920;SDS011;61064;51.654;5.476;2023-08-12T08:16:08;5.77;;;2.70;;
72920;SDS011;61064;51.654;5.476;2023-08-12T08:18:34;6.20;;;2.90;;
72920;SDS011;61064;51.654;5.476;2023-08-12T08:21:02;5.65;;;2.45;;
72920;SDS011;61064;51.654;5.476;2023-08-12T08:23:28;8.90;;;2.57;;
72920;SDS011;61064;51.654;5.476;2023-08-12T08:25:53;6.50;;;2.23;;
72920;SDS011;61064;51.654;5.476;2023-08-12T08:28:18;6.30;;;2.77;;
72920;SDS011;61064;51.654;5.476;2023-08-12T08:30:44;6.63;;;2.43;;
72920;SDS011;61064;51.654;5.476;2023-08-12T08:33:12;5.40;;;2.50;;
72920;SDS011;61064;51.654;5.476;2023-08-12T08:35:38;6.22;;;2.63;;
72920;SDS011;61064;51.654;5.476;2023-08-12T08:38:04;5.47;;;2.50;;
72920;SDS011;61064;51.654;5.476;2023-08-12T08:40:35;5.78;;;3.00;;
72920;SDS011;61064;51.654;5.476;2023-08-12T08:43:02;6.95;;;2.95;;
72920;SDS011;61064;51.654;5.476;2023-08-12T08:45:34;6.25;;;2.90;;
72920;SDS011;61064;51.654;5.476;2023-08-12T08:48:02;5.90;;;3.07;;
72920;SDS011;61064;51.654;5.476;2023-08-12T08:50:30;5.90;;;2.53;;
72920;SDS011;61064;51.654;5.476;2023-08-12T08:52:56;5.20;;;2.53;;
72920;SDS011;61064;51.654;5.476;2023-08-12T08:55:21;6.80;;;2.60;;
72920;SDS011;61064;51.654;5.476;2023-08-12T08:57:47;5.70;;;2.60;;
72920;SDS011;61064;51.654;5.476;2023-08-12T09:00:16;5.30;;;2.47;;
72920;SDS011;61064;51.654;5.476;2023-08-12T09:02:47;5.43;;;2.30;;
72920;SDS011;61064;51.654;5.476;2023-08-12T09:05:18;6.43;;;2.50;;
72920;SDS011;61064;51.654;5.476;2023-08-12T09:07:47;5.75;;;2.38;;
72920;SDS011;61064;51.654;5.476;2023-08-12T09:10:18;6.13;;;2.25;;
72920;SDS011;61064;51.654;5.476;2023-08-12T09:12:46;5.07;;;2.20;;
72920;SDS011;61064;51.654;5.476;2023-08-12T09:15:12;3.88;;;1.50;;
72920;SDS011;61064;51.654;5.476;2023-08-12T09:17:49;5.57;;;1.50;;
72920;SDS011;61064;51.654;5.476;2023-08-12T09:20:14;4.53;;;1.40;;
72920;SDS011;61064;51.654;5.476;2023-08-12T09:22:42;2.97;;;0.90;;
72920;SDS011;61064;51.654;5.476;2023-08-12T09:25:11;2.65;;;0.90;;
72920;SDS011;61064;51.654;5.476;2023-08-12T09:27:38;3.30;;;0.70;;
72920;SDS011;61064;51.654;5.476;2023-08-12T09:30:03;3.40;;;0.70;;
72920;SDS011;61064;51.654;5.476;2023-08-12T09:32:32;2.80;;;0.70;;
72920;SDS011;61064;51.654;5.476;2023-08-12T09:35:03;4.35;;;0.80;;
72920;SDS011;61064;51.654;5.476;2023-08-12T09:37:40;2.55;;;0.57;;
72920;SDS011;61064;51.654;5.476;2023-08-12T09:40:09;3.53;;;0.80;;
72920;SDS011;61064;51.654;5.476;2023-08-12T09:42:43;3.53;;;0.70;;
72920;SDS011;61064;51.654;5.476;2023-08-12T09:45:10;4.82;;;0.70;;
72920;SDS011;61064;51.654;5.476;2023-08-12T09:47:36;3.95;;;0.80;;
72920;SDS011;61064;51.654;5.476;2023-08-12T09:50:01;5.23;;;0.93;;
72920;SDS011;61064;51.654;5.476;2023-08-12T09:52:29;5.38;;;1.30;;
72920;SDS011;61064;51.654;5.476;2023-08-12T09:54:58;6.13;;;1.13;;
72920;SDS011;61064;51.654;5.476;2023-08-12T09:57:30;3.67;;;0.80;;
72920;SDS011;61064;51.654;5.476;2023-08-12T10:00:16;4.32;;;0.75;;
72920;SDS011;61064;51.654;5.476;2023-08-12T10:02:44;5.00;;;0.90;;
72920;SDS011;61064;51.654;5.476;2023-08-12T10:05:11;4.80;;;0.93;;
72920;SDS011;61064;51.654;5.476;2023-08-12T10:07:40;5.25;;;0.95;;
72920;SDS011;61064;51.654;5.476;2023-08-12T10:10:06;5.68;;;1.00;;
72920;SDS011;61064;51.654;5.476;2023-08-12T10:12:34;4.88;;;0.70;;
72920;SDS011;61064;51.654;5.476;2023-08-12T10:15:01;3.70;;;0.70;;
72920;SDS011;61064;51.654;5.476;2023-08-12T10:17:27;7.07;;;1.00;;
72920;SDS011;61064;51.654;5.476;2023-08-12T10:19:56;5.82;;;1.20;;
72920;SDS011;61064;51.654;5.476;2023-08-12T10:22:27;5.85;;;1.10;;
72920;SDS011;61064;51.654;5.476;2023-08-12T10:24:58;5.95;;;1.00;;
72920;SDS011;61064;51.654;5.476;2023-08-12T10:27:25;6.40;;;1.10;;
72920;SDS011;61064;51.654;5.476;2023-08-12T10:29:57;4.70;;;0.88;;
72920;SDS011;61064;51.654;5.476;2023-08-12T10:32:23;6.03;;;1.00;;
72920;SDS011;61064;51.654;5.476;2023-08-12T10:34:56;6.45;;;1.20;;
72920;SDS011;61064;51.654;5.476;2023-08-12T10:37:23;5.30;;;1.10;;
72920;SDS011;61064;51.654;5.476;2023-08-12T10:39:53;7.27;;;1.20;;
72920;SDS011;61064;51.654;5.476;2023-08-12T10:50:59;6.45;;;1.10;;
72920;SDS011;61064;51.654;5.476;2023-08-12T10:56:02;4.50;;;0.82;;
72920;SDS011;61064;51.654;5.476;2023-08-12T10:58:29;7.25;;;1.10;;
72920;SDS011;61064;51.654;5.476;2023-08-12T11:01:17;6.50;;;1.15;;
72920;SDS011;61064;51.654;5.476;2023-08-12T11:03:45;6.10;;;1.02;;
72920;SDS011;61064;51.654;5.476;2023-08-12T11:06:13;6.73;;;1.07;;
72920;SDS011;61064;51.654;5.476;2023-08-12T11:08:51;6.07;;;1.20;;
72920;SDS011;61064;51.654;5.476;2023-08-12T11:11:24;8.05;;;1.20;;
72920;SDS011;61064;51.654;5.476;2023-08-12T11:14:05;6.07;;;1.10;;
72920;SDS011;61064;51.654;5.476;2023-08-12T11:16:45;5.38;;;0.85;;
72920;SDS011;61064;51.654;5.476;2023-08-12T11:19:15;7.57;;;1.10;;
72920;SDS011;61064;51.654;5.476;2023-08-12T11:21:43;9.43;;;1.20;;
72920;SDS011;61064;51.654;5.476;2023-08-12T11:24:12;5.00;;;1.10;;
72920;SDS011;61064;51.654;5.476;2023-08-12T11:26:41;6.67;;;1.10;;
72920;SDS011;61064;51.654;5.476;2023-08-12T11:29:11;6.55;;;1.40;;
72920;SDS011;61064;51.654;5.476;2023-08-12T11:31:36;6.28;;;1.00;;
72920;SDS011;61064;51.654;5.476;2023-08-12T11:34:02;5.20;;;1.17;;
72920;SDS011;61064;51.654;5.476;2023-08-12T11:36:33;6.88;;;1.17;;
72920;SDS011;61064;51.654;5.476;2023-08-12T11:39:02;7.53;;;1.00;;
72920;SDS011;61064;51.654;5.476;2023-08-12T11:41:43;6.78;;;1.17;;
72920;SDS011;61064;51.654;5.476;2023-08-12T11:44:13;6.60;;;1.10;;
72920;SDS011;61064;51.654;5.476;2023-08-12T11:46:52;10.05;;;1.20;;
72920;SDS011;61064;51.654;5.476;2023-08-12T11:49:19;8.02;;;1.00;;
72920;SDS011;61064;51.654;5.476;2023-08-12T11:51:47;10.13;;;1.20;;
72920;SDS011;61064;51.654;5.476;2023-08-12T11:54:14;9.18;;;1.50;;
72920;SDS011;61064;51.654;5.476;2023-08-12T11:56:43;6.17;;;1.07;;
72920;SDS011;61064;51.654;5.476;2023-08-12T11:59:08;8.10;;;1.27;;
72920;SDS011;61064;51.654;5.476;2023-08-12T12:01:46;10.70;;;1.27;;
72920;SDS011;61064;51.654;5.476;2023-08-12T12:04:14;9.02;;;1.35;;
72920;SDS011;61064;51.654;5.476;2023-08-12T12:06:41;9.20;;;1.38;;
72920;SDS011;61064;51.654;5.476;2023-08-12T12:09:32;7.87;;;1.57;;
72920;SDS011;61064;51.654;5.476;2023-08-12T12:11:57;7.50;;;1.27;;
72920;SDS011;61064;51.654;5.476;2023-08-12T12:14:26;6.80;;;1.27;;
72920;SDS011;61064;51.654;5.476;2023-08-12T12:16:54;7.43;;;1.50;;
72920;SDS011;61064;51.654;5.476;2023-08-12T12:19:23;9.70;;;1.50;;
72920;SDS011;61064;51.654;5.476;2023-08-12T12:21:49;7.75;;;1.30;;
72920;SDS011;61064;51.654;5.476;2023-08-12T12:24:19;10.25;;;1.25;;
72920;SDS011;61064;51.654;5.476;2023-08-12T12:26:46;7.13;;;1.23;;
72920;SDS011;61064;51.654;5.476;2023-08-12T12:29:12;8.23;;;1.55;;
72920;SDS011;61064;51.654;5.476;2023-08-12T12:31:39;8.83;;;1.47;;
72920;SDS011;61064;51.654;5.476;2023-08-12T12:34:08;8.73;;;1.40;;
72920;SDS011;61064;51.654;5.476;2023-08-12T12:36:37;7.78;;;1.23;;
72920;SDS011;61064;51.654;5.476;2023-08-12T12:39:04;7.70;;;1.30;;
72920;SDS011;61064;51.654;5.476;2023-08-12T12:41:32;9.75;;;1.30;;
72920;SDS011;61064;51.654;5.476;2023-08-12T12:44:09;8.30;;;1.30;;
72920;SDS011;61064;51.654;5.476;2023-08-12T12:46:37;8.38;;;1.30;;
72920;SDS011;61064;51.654;5.476;2023-08-12T12:49:02;8.17;;;1.40;;
72920;SDS011;61064;51.654;5.476;2023-08-12T12:51:28;8.95;;;1.60;;
72920;SDS011;61064;51.654;5.476;2023-08-12T12:53:53;9.37;;;1.30;;
72920;SDS011;61064;51.654;5.476;2023-08-12T12:56:21;6.55;;;1.10;;
72920;SDS011;61064;51.654;5.476;2023-08-12T12:58:47;6.57;;;1.13;;
72920;SDS011;61064;51.654;5.476;2023-08-12T13:01:13;8.13;;;1.37;;
72920;SDS011;61064;51.654;5.476;2023-08-12T13:03:38;7.97;;;1.35;;
72920;SDS011;61064;51.654;5.476;2023-08-12T13:06:04;8.17;;;1.33;;
72920;SDS011;61064;51.654;5.476;2023-08-12T13:08:33;9.07;;;1.67;;
72920;SDS011;61064;51.654;5.476;2023-08-12T13:10:58;5.43;;;1.20;;
72920;SDS011;61064;51.654;5.476;2023-08-12T13:13:24;7.13;;;1.50;;
72920;SDS011;61064;51.654;5.476;2023-08-12T13:15:50;9.00;;;1.40;;
72920;SDS011;61064;51.654;5.476;2023-08-12T13:18:16;6.65;;;1.55;;
72920;SDS011;61064;51.654;5.476;2023-08-12T13:20:44;8.20;;;1.48;;
72920;SDS011;61064;51.654;5.476;2023-08-12T13:23:09;7.73;;;1.33;;
72920;SDS011;61064;51.654;5.476;2023-08-12T13:25:38;10.93;;;1.50;;
72920;SDS011;61064;51.654;5.476;2023-08-12T13:28:03;7.68;;;1.48;;
72920;SDS011;61064;51.654;5.476;2023-08-12T13:30:29;7.03;;;1.50;;
72920;SDS011;61064;51.654;5.476;2023-08-12T13:32:55;10.90;;;1.58;;
72920;SDS011;61064;51.654;5.476;2023-08-12T13:35:23;9.57;;;1.60;;
72920;SDS011;61064;51.654;5.476;2023-08-12T13:37:49;6.80;;;1.20;;
72920;SDS011;61064;51.654;5.476;2023-08-12T13:40:16;9.15;;;1.40;;
72920;SDS011;61064;51.654;5.476;2023-08-12T13:42:41;8.17;;;1.50;;
72920;SDS011;61064;51.654;5.476;2023-08-12T13:45:07;8.07;;;1.20;;
72920;SDS011;61064;51.654;5.476;2023-08-12T13:47:35;7.55;;;1.30;;
72920;SDS011;61064;51.654;5.476;2023-08-12T13:50:04;8.60;;;1.23;;
72920;SDS011;61064;51.654;5.476;2023-08-12T13:52:30;9.38;;;1.20;;
72920;SDS011;61064;51.654;5.476;2023-08-12T13:54:55;10.43;;;1.40;;
72920;SDS011;61064;51.654;5.476;2023-08-12T13:57:24;9.90;;;1.65;;
72920;SDS011;61064;51.654;5.476;2023-08-12T13:59:49;5.93;;;1.23;;
72920;SDS011;61064;51.654;5.476;2023-08-12T14:02:21;8.47;;;1.40;;
72920;SDS011;61064;51.654;5.476;2023-08-12T14:04:47;8.88;;;1.23;;
72920;SDS011;61064;51.654;5.476;2023-08-12T14:07:12;8.57;;;1.23;;
72920;SDS011;61064;51.654;5.476;2023-08-12T14:09:38;8.02;;;1.40;;
72920;SDS011;61064;51.654;5.476;2023-08-12T14:12:03;8.43;;;1.40;;
72920;SDS011;61064;51.654;5.476;2023-08-12T14:14:29;8.70;;;1.50;;
72920;SDS011;61064;51.654;5.476;2023-08-12T14:16:58;10.23;;;1.50;;
72920;SDS011;61064;51.654;5.476;2023-08-12T14:19:24;8.93;;;1.57;;
72920;SDS011;61064;51.654;5.476;2023-08-12T14:21:49;8.77;;;1.70;;
72920;SDS011;61064;51.654;5.476;2023-08-12T14:24:14;10.57;;;1.50;;
72920;SDS011;61064;51.654;5.476;2023-08-12T14:26:43;10.57;;;1.60;;
72920;SDS011;61064;51.654;5.476;2023-08-12T14:29:08;6.73;;;1.43;;
72920;SDS011;61064;51.654;5.476;2023-08-12T14:31:36;12.38;;;1.50;;
72920;SDS011;61064;51.654;5.476;2023-08-12T14:34:02;8.40;;;1.55;;
72920;SDS011;61064;51.654;5.476;2023-08-12T14:36:28;9.60;;;1.70;;
72920;SDS011;61064;51.654;5.476;2023-08-12T14:38:53;8.40;;;1.52;;
72920;SDS011;61064;51.654;5.476;2023-08-12T14:41:19;8.07;;;1.60;;
72920;SDS011;61064;51.654;5.476;2023-08-12T14:43:44;11.50;;;1.70;;
72920;SDS011;61064;51.654;5.476;2023-08-12T14:46:13;8.00;;;1.30;;
72920;SDS011;61064;51.654;5.476;2023-08-12T14:48:38;10.37;;;1.70;;
72920;SDS011;61064;51.654;5.476;2023-08-12T14:51:04;8.13;;;1.48;;
72920;SDS011;61064;51.654;5.476;2023-08-12T14:53:29;8.47;;;1.60;;